sensor_id;sensor_type;location;lat;lon;timestamp;P1;durP1;ratioP1;P2;durP2;ratioP2
51242;SDS011;37812;47.556;18.718;2022-07-29T00:00:07;7.40;;;3.95;;
51242;SDS011;37812;47.556;18.718;2022-07-29T00:02:35;9.18;;;4.32;;
51242;SDS011;37812;47.556;18.718;2022-07-29T00:05:01;8.70;;;4.00;;
51242;SDS011;37812;47.556;18.718;2022-07-29T00:07:28;8.13;;;3.90;;
51242;SDS011;37812;47.556;18.718;2022-07-29T00:09:54;7.65;;;4.22;;
51242;SDS011;37812;47.556;18.718;2022-07-29T00:12:20;9.07;;;3.92;;
51242;SDS011;37812;47.556;18.718;2022-07-29T00:14:48;7.80;;;4.07;;
51242;SDS011;37812;47.556;18.718;2022-07-29T00:17:15;8.05;;;3.80;;
51242;SDS011;37812;47.556;18.718;2022-07-29T00:19:41;7.80;;;4.00;;
51242;SDS011;37812;47.556;18.718;2022-07-29T00:22:06;7.60;;;4.00;;
51242;SDS011;37812;47.556;18.718;2022-07-29T00:24:32;7.40;;;3.90;;
51242;SDS011;37812;47.556;18.718;2022-07-29T00:26:58;9.35;;;4.20;;
51242;SDS011;37812;47.556;18.718;2022-07-29T00:29:24;7.70;;;4.45;;
51242;SDS011;37812;47.556;18.718;2022-07-29T00:31:50;7.53;;;4.10;;
51242;SDS011;37812;47.556;18.718;2022-07-29T00:34:16;8.00;;;4.75;;
51242;SDS011;37812;47.556;18.718;2022-07-29T00:37:01;7.95;;;4.32;;
51242;SDS011;37812;47.556;18.718;2022-07-29T00:39:27;8.40;;;4.40;;
51242;SDS011;37812;47.556;18.718;2022-07-29T00:41:53;7.57;;;4.20;;
51242;SDS011;37812;47.556;18.718;2022-07-29T00:44:19;7.53;;;4.35;;
51242;SDS011;37812;47.556;18.718;2022-07-29T00:46:45;8.68;;;4.70;;
51242;SDS011;37812;47.556;18.718;2022-07-29T00:49:11;7.80;;;4.40;;
51242;SDS011;37812;47.556;18.718;2022-07-29T00:51:37;7.60;;;4.30;;
51242;SDS011;37812;47.556;18.718;2022-07-29T00:54:03;8.27;;;5.12;;
51242;SDS011;37812;47.556;18.718;2022-07-29T00:56:30;8.20;;;4.65;;
51242;SDS011;37812;47.556;18.718;2022-07-29T00:58:57;8.30;;;4.40;;
51242;SDS011;37812;47.556;18.718;2022-07-29T01:01:24;7.30;;;3.80;;
51242;SDS011;37812;47.556;18.718;2022-07-29T01:03:50;9.98;;;4.70;;
51242;SDS011;37812;47.556;18.718;2022-07-29T01:06:17;8.70;;;7.68;;
51242;SDS011;37812;47.556;18.718;2022-07-29T01:08:47;8.98;;;7.95;;
51242;SDS011;37812;47.556;18.718;2022-07-29T01:11:14;7.93;;;4.87;;
51242;SDS011;37812;47.556;18.718;2022-07-29T01:13:43;7.80;;;4.20;;
51242;SDS011;37812;47.556;18.718;2022-07-29T01:16:31;7.62;;;4.22;;
51242;SDS011;37812;47.556;18.718;2022-07-29T01:19:07;7.60;;;4.10;;
51242;SDS011;37812;47.556;18.718;2022-07-29T01:21:55;7.87;;;4.40;;
51242;SDS011;37812;47.556;18.718;2022-07-29T01:29:59;8.10;;;4.50;;
51242;SDS011;37812;47.556;18.718;2022-07-29T01:32:29;6.57;;;3.10;;
51242;SDS011;37812;47.556;18.718;2022-07-29T01:35:02;1.95;;;0.93;;
51242;SDS011;37812;47.556;18.718;2022-07-29T01:40:34;2.85;;;1.30;;
51242;SDS011;37812;47.556;18.718;2022-07-29T01:43:09;2.62;;;1.25;;
51242;SDS011;37812;47.556;18.718;2022-07-29T01:45:48;2.05;;;0.98;;
51242;SDS011;37812;47.556;18.718;2022-07-29T01:48:22;3.10;;;1.15;;
51242;SDS011;37812;47.556;18.718;2022-07-29T01:53:44;4.47;;;1.33;;
51242;SDS011;37812;47.556;18.718;2022-07-29T01:56:16;2.60;;;1.27;;
51242;SDS011;37812;47.556;18.718;2022-07-29T01:58:44;4.62;;;1.95;;
51242;SDS011;37812;47.556;18.718;2022-07-29T02:01:11;2.92;;;1.10;;
51242;SDS011;37812;47.556;18.718;2022-07-29T02:03:39;1.50;;;0.98;;
51242;SDS011;37812;47.556;18.718;2022-07-29T02:06:11;1.55;;;0.70;;
51242;SDS011;37812;47.556;18.718;2022-07-29T02:08:39;2.03;;;1.08;;
51242;SDS011;37812;47.556;18.718;2022-07-29T02:11:06;2.80;;;1.15;;
51242;SDS011;37812;47.556;18.718;2022-07-29T02:13:34;2.62;;;1.05;;
51242;SDS011;37812;47.556;18.718;2022-07-29T02:16:03;2.05;;;1.23;;
51242;SDS011;37812;47.556;18.718;2022-07-29T02:18:32;4.00;;;1.33;;
51242;SDS011;37812;47.556;18.718;2022-07-29T02:21:01;3.95;;;1.25;;
51242;SDS011;37812;47.556;18.718;2022-07-29T02:23:29;2.67;;;1.20;;
51242;SDS011;37812;47.556;18.718;2022-07-29T02:25:58;1.85;;;0.98;;
51242;SDS011;37812;47.556;18.718;2022-07-29T02:28:26;3.17;;;1.15;;
51242;SDS011;37812;47.556;18.718;2022-07-29T02:30:58;4.55;;;1.62;;
51242;SDS011;37812;47.556;18.718;2022-07-29T02:33:26;2.85;;;1.23;;
51242;SDS011;37812;47.556;18.718;2022-07-29T02:35:55;3.08;;;1.25;;
51242;SDS011;37812;47.556;18.718;2022-07-29T02:38:22;3.42;;;1.15;;
51242;SDS011;37812;47.556;18.718;2022-07-29T02:41:13;6.70;;;1.55;;
51242;SDS011;37812;47.556;18.718;2022-07-29T02:43:43;2.25;;;0.90;;
51242;SDS011;37812;47.556;18.718;2022-07-29T02:46:20;2.40;;;1.02;;
51242;SDS011;37812;47.556;18.718;2022-07-29T02:48:55;4.18;;;1.35;;
51242;SDS011;37812;47.556;18.718;2022-07-29T02:51:27;2.78;;;1.05;;
51242;SDS011;37812;47.556;18.718;2022-07-29T02:53:57;3.78;;;1.12;;
51242;SDS011;37812;47.556;18.718;2022-07-29T02:56:30;3.35;;;1.12;;
51242;SDS011;37812;47.556;18.718;2022-07-29T02:59:07;3.70;;;1.33;;
51242;SDS011;37812;47.556;18.718;2022-07-29T03:01:36;3.45;;;1.23;;
51242;SDS011;37812;47.556;18.718;2022-07-29T03:04:05;2.20;;;1.10;;
51242;SDS011;37812;47.556;18.718;2022-07-29T03:06:33;1.65;;;1.00;;
51242;SDS011;37812;47.556;18.718;2022-07-29T03:09:00;2.58;;;1.05;;
51242;SDS011;37812;47.556;18.718;2022-07-29T03:11:27;3.03;;;1.33;;
51242;SDS011;37812;47.556;18.718;2022-07-29T03:13:54;2.95;;;1.40;;
51242;SDS011;37812;47.556;18.718;2022-07-29T03:16:20;2.22;;;1.12;;
51242;SDS011;37812;47.556;18.718;2022-07-29T03:18:49;2.75;;;1.00;;
51242;SDS011;37812;47.556;18.718;2022-07-29T03:21:16;2.42;;;1.33;;
51242;SDS011;37812;47.556;18.718;2022-07-29T03:23:45;3.03;;;1.10;;
51242;SDS011;37812;47.556;18.718;2022-07-29T03:26:11;2.92;;;1.20;;
51242;SDS011;37812;47.556;18.718;2022-07-29T03:28:38;3.75;;;1.20;;
51242;SDS011;37812;47.556;18.718;2022-07-29T03:31:04;2.58;;;1.25;;
51242;SDS011;37812;47.556;18.718;2022-07-29T03:33:29;2.50;;;1.27;;
51242;SDS011;37812;47.556;18.718;2022-07-29T03:35:56;2.78;;;1.40;;
51242;SDS011;37812;47.556;18.718;2022-07-29T03:38:23;1.92;;;1.20;;
51242;SDS011;37812;47.556;18.718;2022-07-29T03:41:03;3.95;;;1.42;;
51242;SDS011;37812;47.556;18.718;2022-07-29T03:43:34;3.22;;;1.12;;
51242;SDS011;37812;47.556;18.718;2022-07-29T03:46:03;2.55;;;1.00;;
51242;SDS011;37812;47.556;18.718;2022-07-29T03:48:33;3.65;;;1.77;;
51242;SDS011;37812;47.556;18.718;2022-07-29T03:51:02;2.58;;;1.10;;
51242;SDS011;37812;47.556;18.718;2022-07-29T03:53:28;3.53;;;1.10;;
51242;SDS011;37812;47.556;18.718;2022-07-29T03:55:54;1.75;;;0.98;;
51242;SDS011;37812;47.556;18.718;2022-07-29T03:58:26;4.40;;;1.62;;
51242;SDS011;37812;47.556;18.718;2022-07-29T04:00:53;2.83;;;1.25;;
51242;SDS011;37812;47.556;18.718;2022-07-29T04:03:20;3.00;;;1.15;;
51242;SDS011;37812;47.556;18.718;2022-07-29T04:06:00;2.78;;;1.20;;
51242;SDS011;37812;47.556;18.718;2022-07-29T04:08:27;1.37;;;0.98;;
51242;SDS011;37812;47.556;18.718;2022-07-29T04:10:53;10.55;;;1.30;;
51242;SDS011;37812;47.556;18.718;2022-07-29T04:13:20;4.03;;;1.45;;
51242;SDS011;37812;47.556;18.718;2022-07-29T04:15:46;2.50;;;1.12;;
51242;SDS011;37812;47.556;18.718;2022-07-29T04:18:12;3.53;;;1.27;;
51242;SDS011;37812;47.556;18.718;2022-07-29T04:20:38;3.58;;;1.40;;
51242;SDS011;37812;47.556;18.718;2022-07-29T04:23:03;1.92;;;1.05;;
51242;SDS011;37812;47.556;18.718;2022-07-29T04:25:29;4.07;;;1.70;;
51242;SDS011;37812;47.556;18.718;2022-07-29T04:27:55;4.28;;;1.50;;
51242;SDS011;37812;47.556;18.718;2022-07-29T04:32:54;4.70;;;1.58;;
51242;SDS011;37812;47.556;18.718;2022-07-29T04:35:20;4.20;;;1.60;;
51242;SDS011;37812;47.556;18.718;2022-07-29T04:37:47;8.07;;;4.68;;
51242;SDS011;37812;47.556;18.718;2022-07-29T04:40:13;7.97;;;4.82;;
51242;SDS011;37812;47.556;18.718;2022-07-29T04:42:39;8.57;;;5.03;;
51242;SDS011;37812;47.556;18.718;2022-07-29T04:45:05;8.18;;;5.05;;
51242;SDS011;37812;47.556;18.718;2022-07-29T04:47:31;12.13;;;4.90;;
51242;SDS011;37812;47.556;18.718;2022-07-29T04:49:57;8.63;;;4.78;;
51242;SDS011;37812;47.556;18.718;2022-07-29T04:52:24;8.40;;;5.00;;
51242;SDS011;37812;47.556;18.718;2022-07-29T04:54:49;8.50;;;5.32;;
51242;SDS011;37812;47.556;18.718;2022-07-29T04:57:15;8.38;;;5.22;;
51242;SDS011;37812;47.556;18.718;2022-07-29T04:59:41;8.10;;;5.00;;
51242;SDS011;37812;47.556;18.718;2022-07-29T05:02:07;8.57;;;5.25;;
51242;SDS011;37812;47.556;18.718;2022-07-29T05:04:33;8.10;;;5.20;;
51242;SDS011;37812;47.556;18.718;2022-07-29T05:06:59;9.05;;;5.53;;
51242;SDS011;37812;47.556;18.718;2022-07-29T05:09:25;8.27;;;5.20;;
51242;SDS011;37812;47.556;18.718;2022-07-29T05:11:51;8.68;;;5.40;;
51242;SDS011;37812;47.556;18.718;2022-07-29T05:14:17;8.73;;;5.55;;
51242;SDS011;37812;47.556;18.718;2022-07-29T05:16:43;5.55;;;2.53;;
51242;SDS011;37812;47.556;18.718;2022-07-29T05:19:09;5.07;;;2.25;;
51242;SDS011;37812;47.556;18.718;2022-07-29T05:21:35;7.90;;;4.90;;
51242;SDS011;37812;47.556;18.718;2022-07-29T05:24:01;8.10;;;5.10;;
51242;SDS011;37812;47.556;18.718;2022-07-29T05:26:27;8.30;;;5.30;;
51242;SDS011;37812;47.556;18.718;2022-07-29T05:28:53;8.32;;;5.28;;
51242;SDS011;37812;47.556;18.718;2022-07-29T05:31:19;8.20;;;5.62;;
51242;SDS011;37812;47.556;18.718;2022-07-29T05:33:45;8.55;;;5.70;;
51242;SDS011;37812;47.556;18.718;2022-07-29T05:36:11;8.70;;;5.62;;
51242;SDS011;37812;47.556;18.718;2022-07-29T05:38:37;8.63;;;6.05;;
51242;SDS011;37812;47.556;18.718;2022-07-29T05:41:04;9.32;;;6.05;;
51242;SDS011;37812;47.556;18.718;2022-07-29T05:43:30;8.68;;;5.68;;
51242;SDS011;37812;47.556;18.718;2022-07-29T05:45:57;9.07;;;5.95;;
51242;SDS011;37812;47.556;18.718;2022-07-29T05:48:24;8.75;;;5.70;;
51242;SDS011;37812;47.556;18.718;2022-07-29T05:50:50;8.77;;;6.05;;
51242;SDS011;37812;47.556;18.718;2022-07-29T05:53:16;8.30;;;5.90;;
51242;SDS011;37812;47.556;18.718;2022-07-29T05:55:42;8.80;;;5.75;;
51242;SDS011;37812;47.556;18.718;2022-07-29T05:58:08;8.50;;;5.50;;
51242;SDS011;37812;47.556;18.718;2022-07-29T06:00:34;8.30;;;6.00;;
51242;SDS011;37812;47.556;18.718;2022-07-29T06:03:00;10.20;;;6.28;;
51242;SDS011;37812;47.556;18.718;2022-07-29T06:05:26;8.57;;;5.72;;
51242;SDS011;37812;47.556;18.718;2022-07-29T06:07:52;9.18;;;6.45;;
51242;SDS011;37812;47.556;18.718;2022-07-29T06:10:18;8.20;;;5.53;;
51242;SDS011;37812;47.556;18.718;2022-07-29T06:12:44;8.52;;;5.60;;
51242;SDS011;37812;47.556;18.718;2022-07-29T06:15:10;8.43;;;5.70;;
51242;SDS011;37812;47.556;18.718;2022-07-29T06:17:36;8.10;;;5.40;;
51242;SDS011;37812;47.556;18.718;2022-07-29T06:20:02;8.30;;;5.20;;
51242;SDS011;37812;47.556;18.718;2022-07-29T06:22:29;8.25;;;5.47;;
51242;SDS011;37812;47.556;18.718;2022-07-29T06:24:55;8.57;;;5.55;;
51242;SDS011;37812;47.556;18.718;2022-07-29T06:27:21;8.55;;;5.25;;
51242;SDS011;37812;47.556;18.718;2022-07-29T06:29:47;8.95;;;5.32;;
51242;SDS011;37812;47.556;18.718;2022-07-29T06:32:13;8.30;;;5.55;;
51242;SDS011;37812;47.556;18.718;2022-07-29T06:34:39;8.68;;;5.65;;
51242;SDS011;37812;47.556;18.718;2022-07-29T06:37:05;8.50;;;5.40;;
51242;SDS011;37812;47.556;18.718;2022-07-29T06:39:37;8.18;;;5.03;;
51242;SDS011;37812;47.556;18.718;2022-07-29T06:42:03;8.05;;;5.20;;
51242;SDS011;37812;47.556;18.718;2022-07-29T06:44:29;8.27;;;5.28;;
51242;SDS011;37812;47.556;18.718;2022-07-29T06:46:56;8.15;;;5.32;;
51242;SDS011;37812;47.556;18.718;2022-07-29T06:49:22;8.63;;;5.70;;
51242;SDS011;37812;47.556;18.718;2022-07-29T06:51:49;8.10;;;5.03;;
51242;SDS011;37812;47.556;18.718;2022-07-29T06:54:15;8.82;;;5.32;;
51242;SDS011;37812;47.556;18.718;2022-07-29T06:56:41;9.82;;;5.60;;
51242;SDS011;37812;47.556;18.718;2022-07-29T06:59:09;9.60;;;5.37;;
51242;SDS011;37812;47.556;18.718;2022-07-29T07:01:36;8.18;;;5.43;;
51242;SDS011;37812;47.556;18.718;2022-07-29T07:04:03;8.23;;;5.18;;
51242;SDS011;37812;47.556;18.718;2022-07-29T07:06:29;8.52;;;5.30;;
51242;SDS011;37812;47.556;18.718;2022-07-29T07:08:55;8.10;;;5.07;;
51242;SDS011;37812;47.556;18.718;2022-07-29T07:11:21;8.02;;;5.10;;
51242;SDS011;37812;47.556;18.718;2022-07-29T07:13:47;8.20;;;5.60;;
51242;SDS011;37812;47.556;18.718;2022-07-29T07:16:13;8.30;;;5.25;;
51242;SDS011;37812;47.556;18.718;2022-07-29T07:18:39;8.20;;;5.30;;
51242;SDS011;37812;47.556;18.718;2022-07-29T07:21:05;8.95;;;5.40;;
51242;SDS011;37812;47.556;18.718;2022-07-29T07:23:31;9.95;;;5.53;;
51242;SDS011;37812;47.556;18.718;2022-07-29T07:25:57;8.15;;;5.47;;
51242;SDS011;37812;47.556;18.718;2022-07-29T07:28:23;8.60;;;5.47;;
51242;SDS011;37812;47.556;18.718;2022-07-29T07:30:49;8.30;;;5.75;;
51242;SDS011;37812;47.556;18.718;2022-07-29T07:33:15;7.97;;;5.30;;
51242;SDS011;37812;47.556;18.718;2022-07-29T07:35:41;8.20;;;5.30;;
51242;SDS011;37812;47.556;18.718;2022-07-29T07:38:07;8.20;;;5.78;;
51242;SDS011;37812;47.556;18.718;2022-07-29T07:40:33;9.15;;;5.82;;
51242;SDS011;37812;47.556;18.718;2022-07-29T07:42:59;9.05;;;5.57;;
51242;SDS011;37812;47.556;18.718;2022-07-29T07:45:25;8.68;;;5.40;;
51242;SDS011;37812;47.556;18.718;2022-07-29T07:47:51;8.98;;;5.95;;
51242;SDS011;37812;47.556;18.718;2022-07-29T07:50:17;9.25;;;5.97;;
51242;SDS011;37812;47.556;18.718;2022-07-29T07:52:53;9.07;;;5.93;;
51242;SDS011;37812;47.556;18.718;2022-07-29T07:55:23;9.10;;;5.50;;
51242;SDS011;37812;47.556;18.718;2022-07-29T07:57:50;8.70;;;5.60;;
51242;SDS011;37812;47.556;18.718;2022-07-29T08:00:16;8.80;;;5.87;;
51242;SDS011;37812;47.556;18.718;2022-07-29T08:02:42;9.30;;;5.95;;
51242;SDS011;37812;47.556;18.718;2022-07-29T08:05:10;9.23;;;5.80;;
51242;SDS011;37812;47.556;18.718;2022-07-29T08:07:38;9.00;;;5.60;;
51242;SDS011;37812;47.556;18.718;2022-07-29T08:10:04;8.30;;;5.25;;
51242;SDS011;37812;47.556;18.718;2022-07-29T08:12:30;8.35;;;5.30;;
51242;SDS011;37812;47.556;18.718;2022-07-29T08:14:56;8.20;;;5.22;;
51242;SDS011;37812;47.556;18.718;2022-07-29T08:17:22;8.45;;;5.40;;
51242;SDS011;37812;47.556;18.718;2022-07-29T08:19:48;8.40;;;5.37;;
51242;SDS011;37812;47.556;18.718;2022-07-29T08:22:15;8.60;;;5.62;;
51242;SDS011;37812;47.556;18.718;2022-07-29T08:24:41;8.82;;;5.35;;
51242;SDS011;37812;47.556;18.718;2022-07-29T08:27:13;8.38;;;5.45;;
51242;SDS011;37812;47.556;18.718;2022-07-29T08:29:39;8.32;;;5.20;;
51242;SDS011;37812;47.556;18.718;2022-07-29T08:32:05;8.73;;;5.30;;
51242;SDS011;37812;47.556;18.718;2022-07-29T08:34:32;8.10;;;4.80;;
51242;SDS011;37812;47.556;18.718;2022-07-29T08:36:58;8.40;;;5.40;;
51242;SDS011;37812;47.556;18.718;2022-07-29T08:39:24;8.40;;;5.40;;
51242;SDS011;37812;47.556;18.718;2022-07-29T08:41:50;8.38;;;5.50;;
51242;SDS011;37812;47.556;18.718;2022-07-29T08:44:17;8.27;;;5.45;;
51242;SDS011;37812;47.556;18.718;2022-07-29T08:46:45;8.77;;;5.53;;
51242;SDS011;37812;47.556;18.718;2022-07-29T08:49:11;8.80;;;5.72;;
51242;SDS011;37812;47.556;18.718;2022-07-29T08:51:38;9.10;;;5.65;;
51242;SDS011;37812;47.556;18.718;2022-07-29T08:54:05;9.10;;;5.80;;
51242;SDS011;37812;47.556;18.718;2022-07-29T08:56:33;8.43;;;5.35;;
51242;SDS011;37812;47.556;18.718;2022-07-29T08:59:02;8.23;;;5.28;;
51242;SDS011;37812;47.556;18.718;2022-07-29T09:01:29;8.38;;;5.40;;
51242;SDS011;37812;47.556;18.718;2022-07-29T09:03:57;8.43;;;5.10;;
51242;SDS011;37812;47.556;18.718;2022-07-29T09:06:27;14.65;;;5.30;;
51242;SDS011;37812;47.556;18.718;2022-07-29T09:11:25;8.95;;;5.45;;
51242;SDS011;37812;47.556;18.718;2022-07-29T09:13:51;8.23;;;5.22;;
51242;SDS011;37812;47.556;18.718;2022-07-29T09:16:17;8.93;;;5.60;;
51242;SDS011;37812;47.556;18.718;2022-07-29T09:18:44;8.63;;;5.40;;
51242;SDS011;37812;47.556;18.718;2022-07-29T09:21:15;8.52;;;5.40;;
51242;SDS011;37812;47.556;18.718;2022-07-29T09:26:31;8.20;;;5.20;;
51242;SDS011;37812;47.556;18.718;2022-07-29T09:28:57;8.55;;;5.22;;
51242;SDS011;37812;47.556;18.718;2022-07-29T09:31:34;7.90;;;4.62;;
51242;SDS011;37812;47.556;18.718;2022-07-29T09:34:02;8.13;;;4.93;;
51242;SDS011;37812;47.556;18.718;2022-07-29T09:36:29;9.30;;;5.32;;
51242;SDS011;37812;47.556;18.718;2022-07-29T09:38:59;9.00;;;5.62;;
51242;SDS011;37812;47.556;18.718;2022-07-29T09:41:26;8.48;;;5.40;;
51242;SDS011;37812;47.556;18.718;2022-07-29T09:43:56;8.48;;;5.43;;
51242;SDS011;37812;47.556;18.718;2022-07-29T09:46:23;8.10;;;5.50;;
51242;SDS011;37812;47.556;18.718;2022-07-29T09:49:11;10.15;;;5.87;;
51242;SDS011;37812;47.556;18.718;2022-07-29T09:51:38;7.90;;;5.00;;
51242;SDS011;37812;47.556;18.718;2022-07-29T09:54:21;8.35;;;5.50;;
51242;SDS011;37812;47.556;18.718;2022-07-29T09:56:48;8.02;;;5.12;;
51242;SDS011;37812;47.556;18.718;2022-07-29T09:59:14;8.35;;;5.45;;
51242;SDS011;37812;47.556;18.718;2022-07-29T10:01:41;8.43;;;5.25;;
51242;SDS011;37812;47.556;18.718;2022-07-29T10:04:07;8.25;;;5.25;;
51242;SDS011;37812;47.556;18.718;2022-07-29T10:06:33;11.88;;;5.18;;
51242;SDS011;37812;47.556;18.718;2022-07-29T10:09:17;7.80;;;4.87;;
51242;SDS011;37812;47.556;18.718;2022-07-29T10:11:43;8.57;;;5.50;;
51242;SDS011;37812;47.556;18.718;2022-07-29T10:14:29;8.10;;;5.30;;
51242;SDS011;37812;47.556;18.718;2022-07-29T10:16:57;8.00;;;5.10;;
51242;SDS011;37812;47.556;18.718;2022-07-29T10:19:25;8.07;;;5.12;;
51242;SDS011;37812;47.556;18.718;2022-07-29T10:21:51;7.90;;;4.80;;
51242;SDS011;37812;47.556;18.718;2022-07-29T10:24:18;7.70;;;4.82;;
51242;SDS011;37812;47.556;18.718;2022-07-29T10:26:45;7.93;;;4.80;;
51242;SDS011;37812;47.556;18.718;2022-07-29T10:29:12;7.82;;;4.70;;
51242;SDS011;37812;47.556;18.718;2022-07-29T10:31:42;8.02;;;4.95;;
51242;SDS011;37812;47.556;18.718;2022-07-29T10:40:04;8.20;;;5.15;;
51242;SDS011;37812;47.556;18.718;2022-07-29T10:42:57;8.20;;;5.10;;
51242;SDS011;37812;47.556;18.718;2022-07-29T10:45:34;7.80;;;4.70;;
51242;SDS011;37812;47.556;18.718;2022-07-29T10:48:04;8.10;;;4.87;;
51242;SDS011;37812;47.556;18.718;2022-07-29T10:53:20;8.43;;;5.03;;
51242;SDS011;37812;47.556;18.718;2022-07-29T10:55:47;7.85;;;4.50;;
51242;SDS011;37812;47.556;18.718;2022-07-29T11:00:46;7.72;;;4.60;;
51242;SDS011;37812;47.556;18.718;2022-07-29T11:06:14;8.48;;;5.55;;
51242;SDS011;37812;47.556;18.718;2022-07-29T11:08:40;8.00;;;5.10;;
51242;SDS011;37812;47.556;18.718;2022-07-29T11:13:51;8.07;;;5.18;;
51242;SDS011;37812;47.556;18.718;2022-07-29T11:16:20;8.20;;;5.10;;
51242;SDS011;37812;47.556;18.718;2022-07-29T11:21:42;8.63;;;5.40;;
51242;SDS011;37812;47.556;18.718;2022-07-29T11:24:13;8.10;;;5.40;;
51242;SDS011;37812;47.556;18.718;2022-07-29T11:26:44;9.15;;;5.55;;
51242;SDS011;37812;47.556;18.718;2022-07-29T11:29:21;8.00;;;5.05;;
51242;SDS011;37812;47.556;18.718;2022-07-29T11:31:51;8.50;;;5.20;;
51242;SDS011;37812;47.556;18.718;2022-07-29T11:34:28;8.60;;;5.82;;
51242;SDS011;37812;47.556;18.718;2022-07-29T11:47:22;8.60;;;5.32;;
51242;SDS011;37812;47.556;18.718;2022-07-29T11:49:48;8.77;;;5.47;;
51242;SDS011;37812;47.556;18.718;2022-07-29T11:52:16;8.57;;;5.50;;
51242;SDS011;37812;47.556;18.718;2022-07-29T11:54:49;8.20;;;5.20;;
51242;SDS011;37812;47.556;18.718;2022-07-29T11:57:16;9.10;;;5.20;;
51242;SDS011;37812;47.556;18.718;2022-07-29T11:59:45;8.07;;;5.10;;
51242;SDS011;37812;47.556;18.718;2022-07-29T12:02:13;8.43;;;5.25;;
51242;SDS011;37812;47.556;18.718;2022-07-29T12:04:49;8.13;;;5.20;;
51242;SDS011;37812;47.556;18.718;2022-07-29T12:07:15;8.65;;;5.35;;
51242;SDS011;37812;47.556;18.718;2022-07-29T12:09:51;8.32;;;4.87;;
51242;SDS011;37812;47.556;18.718;2022-07-29T12:12:19;9.02;;;5.35;;
51242;SDS011;37812;47.556;18.718;2022-07-29T12:14:46;8.18;;;5.20;;
51242;SDS011;37812;47.556;18.718;2022-07-29T12:19:58;8.10;;;4.97;;
51242;SDS011;37812;47.556;18.718;2022-07-29T12:22:35;8.38;;;5.20;;
51242;SDS011;37812;47.556;18.718;2022-07-29T12:25:13;8.07;;;4.90;;
51242;SDS011;37812;47.556;18.718;2022-07-29T12:27:42;7.82;;;4.95;;
51242;SDS011;37812;47.556;18.718;2022-07-29T12:30:12;12.07;;;5.90;;
51242;SDS011;37812;47.556;18.718;2022-07-29T12:32:47;8.20;;;5.28;;
51242;SDS011;37812;47.556;18.718;2022-07-29T12:35:14;13.45;;;4.95;;
51242;SDS011;37812;47.556;18.718;2022-07-29T12:37:42;8.23;;;4.95;;
51242;SDS011;37812;47.556;18.718;2022-07-29T12:40:11;8.23;;;4.62;;
51242;SDS011;37812;47.556;18.718;2022-07-29T12:42:39;8.13;;;4.90;;
51242;SDS011;37812;47.556;18.718;2022-07-29T12:45:05;8.27;;;4.80;;
51242;SDS011;37812;47.556;18.718;2022-07-29T12:47:32;8.35;;;4.90;;
51242;SDS011;37812;47.556;18.718;2022-07-29T12:50:11;8.00;;;4.90;;
51242;SDS011;37812;47.556;18.718;2022-07-29T12:52:43;7.90;;;4.53;;
51242;SDS011;37812;47.556;18.718;2022-07-29T12:55:10;8.30;;;5.28;;
51242;SDS011;37812;47.556;18.718;2022-07-29T12:57:46;7.75;;;4.45;;
51242;SDS011;37812;47.556;18.718;2022-07-29T13:00:14;7.80;;;4.40;;
51242;SDS011;37812;47.556;18.718;2022-07-29T13:02:41;7.90;;;4.60;;
51242;SDS011;37812;47.556;18.718;2022-07-29T13:05:09;7.70;;;4.53;;
51242;SDS011;37812;47.556;18.718;2022-07-29T13:07:37;8.20;;;4.93;;
51242;SDS011;37812;47.556;18.718;2022-07-29T13:10:36;7.87;;;4.43;;
51242;SDS011;37812;47.556;18.718;2022-07-29T13:13:04;8.27;;;4.87;;
51242;SDS011;37812;47.556;18.718;2022-07-29T13:15:33;7.95;;;4.82;;
51242;SDS011;37812;47.556;18.718;2022-07-29T13:17:59;8.00;;;4.72;;
51242;SDS011;37812;47.556;18.718;2022-07-29T13:20:26;8.02;;;4.93;;
51242;SDS011;37812;47.556;18.718;2022-07-29T13:22:56;8.13;;;5.00;;
51242;SDS011;37812;47.556;18.718;2022-07-29T13:27:53;8.80;;;5.70;;
51242;SDS011;37812;47.556;18.718;2022-07-29T13:30:20;8.32;;;5.45;;
51242;SDS011;37812;47.556;18.718;2022-07-29T13:32:47;8.10;;;5.18;;
51242;SDS011;37812;47.556;18.718;2022-07-29T13:35:13;8.55;;;5.40;;
51242;SDS011;37812;47.556;18.718;2022-07-29T13:37:39;8.52;;;4.93;;
51242;SDS011;37812;47.556;18.718;2022-07-29T13:40:06;8.98;;;5.40;;
51242;SDS011;37812;47.556;18.718;2022-07-29T13:42:33;10.52;;;5.57;;
51242;SDS011;37812;47.556;18.718;2022-07-29T13:45:00;8.10;;;5.00;;
51242;SDS011;37812;47.556;18.718;2022-07-29T13:47:26;8.20;;;5.25;;
51242;SDS011;37812;47.556;18.718;2022-07-29T13:49:54;9.07;;;5.43;;
51242;SDS011;37812;47.556;18.718;2022-07-29T13:52:20;8.07;;;5.18;;
51242;SDS011;37812;47.556;18.718;2022-07-29T13:54:46;8.15;;;5.00;;
51242;SDS011;37812;47.556;18.718;2022-07-29T13:57:12;8.00;;;4.93;;
51242;SDS011;37812;47.556;18.718;2022-07-29T13:59:39;8.77;;;5.18;;
51242;SDS011;37812;47.556;18.718;2022-07-29T14:02:06;8.02;;;5.10;;
51242;SDS011;37812;47.556;18.718;2022-07-29T14:04:32;8.02;;;4.85;;
51242;SDS011;37812;47.556;18.718;2022-07-29T14:06:59;8.38;;;5.10;;
51242;SDS011;37812;47.556;18.718;2022-07-29T14:09:25;8.00;;;5.00;;
51242;SDS011;37812;47.556;18.718;2022-07-29T14:11:51;8.48;;;5.15;;
51242;SDS011;37812;47.556;18.718;2022-07-29T14:14:18;9.02;;;5.05;;
51242;SDS011;37812;47.556;18.718;2022-07-29T14:16:44;8.40;;;5.00;;
51242;SDS011;37812;47.556;18.718;2022-07-29T14:19:10;7.97;;;4.90;;
51242;SDS011;37812;47.556;18.718;2022-07-29T14:21:36;8.50;;;5.20;;
51242;SDS011;37812;47.556;18.718;2022-07-29T14:24:03;8.90;;;5.28;;
51242;SDS011;37812;47.556;18.718;2022-07-29T14:26:30;8.48;;;5.30;;
51242;SDS011;37812;47.556;18.718;2022-07-29T14:28:56;8.25;;;5.40;;
51242;SDS011;37812;47.556;18.718;2022-07-29T14:31:22;9.05;;;5.70;;
51242;SDS011;37812;47.556;18.718;2022-07-29T14:33:47;8.25;;;5.37;;
51242;SDS011;37812;47.556;18.718;2022-07-29T14:36:13;8.07;;;5.40;;
51242;SDS011;37812;47.556;18.718;2022-07-29T14:38:39;8.55;;;5.55;;
51242;SDS011;37812;47.556;18.718;2022-07-29T14:41:06;8.50;;;5.60;;
51242;SDS011;37812;47.556;18.718;2022-07-29T14:43:33;8.00;;;5.10;;
51242;SDS011;37812;47.556;18.718;2022-07-29T14:46:00;8.07;;;5.20;;
51242;SDS011;37812;47.556;18.718;2022-07-29T14:48:26;8.20;;;5.78;;
51242;SDS011;37812;47.556;18.718;2022-07-29T14:50:52;8.57;;;5.53;;
51242;SDS011;37812;47.556;18.718;2022-07-29T14:53:20;8.35;;;5.28;;
51242;SDS011;37812;47.556;18.718;2022-07-29T14:55:46;8.90;;;5.57;;
51242;SDS011;37812;47.556;18.718;2022-07-29T14:58:12;8.00;;;5.15;;
51242;SDS011;37812;47.556;18.718;2022-07-29T15:00:37;8.63;;;5.25;;
51242;SDS011;37812;47.556;18.718;2022-07-29T15:03:03;8.52;;;5.50;;
51242;SDS011;37812;47.556;18.718;2022-07-29T15:05:30;8.20;;;5.20;;
51242;SDS011;37812;47.556;18.718;2022-07-29T15:07:56;8.38;;;5.70;;
51242;SDS011;37812;47.556;18.718;2022-07-29T15:10:23;8.50;;;5.72;;
51242;SDS011;37812;47.556;18.718;2022-07-29T15:12:49;8.60;;;5.57;;
51242;SDS011;37812;47.556;18.718;2022-07-29T15:15:15;8.82;;;5.47;;
51242;SDS011;37812;47.556;18.718;2022-07-29T15:17:40;8.73;;;6.05;;
51242;SDS011;37812;47.556;18.718;2022-07-29T15:20:07;8.10;;;5.45;;
51242;SDS011;37812;47.556;18.718;2022-07-29T15:22:34;8.45;;;5.40;;
51242;SDS011;37812;47.556;18.718;2022-07-29T15:25:00;9.05;;;5.70;;
51242;SDS011;37812;47.556;18.718;2022-07-29T15:27:26;8.07;;;5.28;;
51242;SDS011;37812;47.556;18.718;2022-07-29T15:29:52;8.50;;;5.87;;
51242;SDS011;37812;47.556;18.718;2022-07-29T15:32:18;9.45;;;5.60;;